createdAt,value
2019-05-05T00:03:08.575Z,-0.47
2019-05-05T00:07:10.646Z,-0.59
2019-05-05T00:11:40.591Z,-0.61
2019-05-05T00:16:00.128Z,-0.58
2019-05-05T00:20:02.063Z,-0.68
2019-05-05T00:24:04.678Z,-0.87
2019-05-05T00:28:07.045Z,-0.94
2019-05-05T00:32:08.954Z,-0.96
2019-05-05T00:36:12.583Z,-0.94
2019-05-05T00:40:15.862Z,-1.04
2019-05-05T00:44:17.680Z,-1.12
2019-05-05T00:48:35.950Z,-1.13
2019-05-05T00:52:37.795Z,-1.18
2019-05-05T00:56:40.153Z,-1.28
2019-05-05T01:00:50.528Z,-1.19
2019-05-05T01:05:14.877Z,-1.41
2019-05-05T01:09:22.126Z,-1.57
2019-05-05T01:13:24.586Z,-1.60
2019-05-05T01:17:26.461Z,-1.57
2019-05-05T01:21:28.340Z,-1.65
2019-05-05T01:25:30.170Z,-1.63
2019-05-05T01:29:31.990Z,-1.70
2019-05-05T01:33:54.193Z,-1.92
2019-05-05T01:38:01.893Z,-2.11
2019-05-05T01:42:09.400Z,-2.24
2019-05-05T01:46:11.237Z,-2.32
2019-05-05T01:50:18.285Z,-2.41
2019-05-05T01:54:16.993Z,-2.45
2019-05-05T01:58:20.121Z,-2.52
2019-05-05T02:02:21.956Z,-2.58
2019-05-05T02:06:24.826Z,-2.64
2019-05-05T02:10:27.295Z,-2.71
2019-05-05T02:14:29.195Z,-2.76
2019-05-05T02:18:31.050Z,-2.77
2019-05-05T02:22:33.055Z,-2.77
2019-05-05T02:26:35.425Z,-2.72
2019-05-05T02:30:46.443Z,-2.70
2019-05-05T02:34:56.316Z,-2.63
2019-05-05T02:38:57.603Z,-2.63
2019-05-05T02:42:59.639Z,-2.61
2019-05-05T02:47:11.796Z,-2.63
2019-05-05T02:51:15.378Z,-2.53
2019-05-05T02:55:18.506Z,-2.47
2019-05-05T02:59:45.938Z,-2.47
2019-05-05T03:03:48.590Z,-2.46
2019-05-05T03:07:50.766Z,-2.47
2019-05-05T03:11:55.268Z,-2.50
2019-05-05T03:16:14.487Z,-2.43
2019-05-05T03:20:16.707Z,-2.28
2019-05-05T03:24:18.781Z,-2.17
2019-05-05T03:28:21.051Z,-2.06
2019-05-05T03:32:25.479Z,-1.96
2019-05-05T03:36:28.029Z,-1.78
2019-05-05T03:40:34.289Z,-1.59
2019-05-05T03:45:01.231Z,-1.43
2019-05-05T03:49:04.798Z,-1.21
2019-05-05T03:53:06.985Z,-1.01
2019-05-05T03:57:09.332Z,-0.77
2019-05-05T04:02:03.823Z,-0.58
2019-05-05T04:06:06.735Z,-0.38
2019-05-05T04:10:09.773Z,-0.10
2019-05-05T04:14:14.293Z,0.10
2019-05-05T04:18:25.794Z,0.29
2019-05-05T04:22:27.924Z,0.46
2019-05-05T04:26:30.278Z,0.66
2019-05-05T04:30:33.835Z,0.93
2019-05-05T04:34:37.299Z,1.17
2019-05-05T04:38:39.513Z,1.41
2019-05-05T04:42:43.859Z,1.72
2019-05-05T04:46:48.302Z,1.99
2019-05-05T04:51:15.156Z,2.09
2019-05-05T04:55:17.016Z,1.87
2019-05-05T04:59:18.857Z,1.91
2019-05-05T05:03:54.200Z,2.12
2019-05-05T05:07:57.955Z,2.47
2019-05-05T05:11:59.338Z,3.33
2019-05-05T05:16:01.153Z,3.40
2019-05-05T05:20:03.738Z,3.36
2019-05-05T05:24:06.038Z,3.20
2019-05-05T05:28:07.902Z,3.32
2019-05-05T05:32:09.710Z,3.28
2019-05-05T05:36:11.629Z,3.10
2019-05-05T05:40:23.643Z,3.20
2019-05-05T05:44:34.117Z,3.48
2019-05-05T05:48:46.510Z,3.89
2019-05-05T05:52:48.411Z,4.31
2019-05-05T05:56:53.682Z,4.65
2019-05-05T06:00:56.722Z,4.66
2019-05-05T06:04:59.141Z,5.34
2019-05-05T06:09:01.054Z,5.82
2019-05-05T06:13:04.517Z,5.93
2019-05-05T06:17:06.420Z,5.12
2019-05-05T06:21:08.325Z,5.07
2019-05-05T06:25:10.445Z,5.15
2019-05-05T06:29:14.433Z,5.71
2019-05-05T06:33:16.264Z,5.80
2019-05-05T06:37:18.192Z,5.59
2019-05-05T06:41:38.971Z,5.62
2019-05-05T06:45:45.776Z,5.83
2019-05-05T06:49:47.635Z,6.35
2019-05-05T06:53:49.495Z,6.61
2019-05-05T06:57:51.369Z,6.64
2019-05-05T07:01:53.646Z,6.98
2019-05-05T07:05:55.679Z,7.22
2019-05-05T07:09:57.628Z,7.05
2019-05-05T07:13:59.498Z,7.59
2019-05-05T07:18:03.577Z,7.89
2019-05-05T07:22:04.928Z,7.79
2019-05-05T07:26:06.751Z,7.66
2019-05-05T07:30:08.924Z,7.85
2019-05-05T07:34:13.662Z,8.45
2019-05-05T07:38:15.658Z,8.59
2019-05-05T07:42:17.537Z,8.03
2019-05-05T07:46:19.424Z,8.20
2019-05-05T07:50:31.234Z,8.04
2019-05-05T07:54:25.010Z,7.63
2019-05-05T07:58:26.832Z,8.12
2019-05-05T08:02:28.762Z,8.40
2019-05-05T08:06:30.604Z,8.57
2019-05-05T08:10:34.340Z,8.15
2019-05-05T08:14:36.239Z,8.16
2019-05-05T08:18:55.861Z,7.91
2019-05-05T08:22:57.817Z,7.66
2019-05-05T08:27:17.348Z,7.89
2019-05-05T08:31:44.335Z,8.48
2019-05-05T08:35:46.226Z,8.43
2019-05-05T08:39:48.059Z,9.09
2019-05-05T08:43:50.980Z,8.73
2019-05-05T08:47:54.192Z,8.86
2019-05-05T08:51:56.191Z,9.71
2019-05-05T08:55:58.818Z,10.04
2019-05-05T09:00:00.764Z,9.57
2019-05-05T09:04:04.147Z,9.52
2019-05-05T09:08:06.282Z,9.11
2019-05-05T09:12:09.657Z,8.69
2019-05-05T09:16:14.480Z,8.55
2019-05-05T09:20:17.046Z,8.71
2019-05-05T09:24:34.156Z,8.67
2019-05-05T09:28:44.562Z,8.55
2019-05-05T09:32:47.788Z,8.48
2019-05-05T09:36:49.710Z,9.37
2019-05-05T09:40:54.272Z,10.30
2019-05-05T09:44:57.023Z,10.43
2019-05-05T09:48:59.044Z,11.46
2019-05-05T09:53:04.050Z,10.81
2019-05-05T09:57:06.360Z,10.52
2019-05-05T10:01:08.948Z,10.97
2019-05-05T10:05:11.253Z,10.71
2019-05-05T10:09:13.934Z,10.89
2019-05-05T10:13:16.275Z,10.36
2019-05-05T10:17:20.082Z,9.61
2019-05-05T10:21:24.464Z,8.98
2019-05-05T10:25:41.645Z,8.99
2019-05-05T10:29:47.572Z,9.53
2019-05-05T10:33:54.107Z,9.97
2019-05-05T10:37:57.411Z,10.52
2019-05-05T10:42:00.290Z,11.08
2019-05-05T10:46:03.891Z,11.18
2019-05-05T10:50:06.365Z,10.72
2019-05-05T10:54:08.671Z,11.16
2019-05-05T10:58:10.884Z,10.77
2019-05-05T11:02:14.013Z,10.51
2019-05-05T11:06:16.668Z,10.70
2019-05-05T11:10:24.681Z,10.46
2019-05-05T11:14:26.331Z,11.23
2019-05-05T11:18:29.003Z,11.16
2019-05-05T11:22:31.397Z,11.25
2019-05-05T11:26:33.987Z,10.45
2019-05-05T11:30:41.148Z,10.24
2019-05-05T11:34:44.261Z,10.68
2019-05-05T11:38:46.581Z,10.70
2019-05-05T11:42:48.809Z,10.41
2019-05-05T11:46:51.033Z,9.46
2019-05-05T11:50:54.030Z,9.63
2019-05-05T11:55:08.929Z,9.80
2019-05-05T11:59:03.750Z,9.47
2019-05-05T12:03:07.110Z,10.23
2019-05-05T12:07:09.426Z,11.14
2019-05-05T12:11:14.866Z,11.32
2019-05-05T12:15:16.779Z,11.27
2019-05-05T12:19:21.472Z,11.06
2019-05-05T12:23:24.844Z,10.85
2019-05-05T12:27:41.014Z,10.95
2019-05-05T12:31:46.838Z,11.01
2019-05-05T12:35:49.544Z,10.95
2019-05-05T12:39:51.755Z,10.41
2019-05-05T12:43:54.932Z,10.83
2019-05-05T12:48:18.433Z,11.24
2019-05-05T12:52:20.680Z,10.77
2019-05-05T12:56:23.816Z,10.60
2019-05-05T13:00:26.317Z,10.35
2019-05-05T13:04:28.602Z,11.02
2019-05-05T13:08:34.001Z,10.45
2019-05-05T13:12:36.522Z,10.62
2019-05-05T13:16:49.820Z,10.98
2019-05-05T13:20:50.917Z,9.64
2019-05-05T13:25:21.464Z,9.67
2019-05-05T13:29:24.636Z,10.28
2019-05-05T13:33:28.319Z,9.73
2019-05-05T13:37:30.472Z,9.72
2019-05-05T13:41:33.994Z,10.29
2019-05-05T13:45:55.931Z,11.16
2019-05-05T13:50:05.256Z,10.91
2019-05-05T13:54:07.430Z,10.95
2019-05-05T13:58:09.696Z,10.58
2019-05-05T14:02:13.752Z,10.44
2019-05-05T14:06:16.199Z,10.83
2019-05-05T14:10:18.850Z,11.07
2019-05-05T14:14:21.132Z,10.73
2019-05-05T14:18:24.724Z,11.07
2019-05-05T14:22:27.353Z,10.92
2019-05-05T14:26:32.098Z,10.66
2019-05-05T14:30:51.625Z,10.20
2019-05-05T14:35:04.046Z,10.79
2019-05-05T14:39:10.108Z,10.87
2019-05-05T14:43:16.772Z,12.54
2019-05-05T14:47:17.958Z,11.99
2019-05-05T14:51:20.030Z,13.54
2019-05-05T14:55:22.509Z,13.14
2019-05-05T14:59:24.799Z,14.25
2019-05-05T15:03:26.937Z,14.79
2019-05-05T15:07:38.547Z,15.27
2019-05-05T15:12:14.313Z,15.77
2019-05-05T15:16:16.605Z,16.41
2019-05-05T15:20:18.601Z,16.13
2019-05-05T15:24:20.962Z,15.70
2019-05-05T15:28:24.537Z,14.82
2019-05-05T15:32:26.694Z,14.81
2019-05-05T15:36:29.740Z,14.61
2019-05-05T15:40:33.346Z,15.12
2019-05-05T15:44:35.390Z,15.41
2019-05-05T15:48:51.158Z,15.50
2019-05-05T15:52:54.446Z,15.39
2019-05-05T15:57:05.386Z,15.43
2019-05-05T16:01:06.778Z,13.41
2019-05-05T16:05:10.208Z,11.05
2019-05-05T16:09:13.721Z,10.13
2019-05-05T16:13:15.734Z,9.59
2019-05-05T16:17:39.318Z,9.29
2019-05-05T16:22:10.921Z,9.26
2019-05-05T16:26:14.215Z,9.01
2019-05-05T16:30:20.707Z,9.03
2019-05-05T16:34:23.557Z,8.64
2019-05-05T16:38:25.770Z,8.48
2019-05-05T16:42:27.758Z,8.41
2019-05-05T16:46:29.678Z,8.21
2019-05-05T16:50:31.467Z,8.30
2019-05-05T16:54:41.621Z,8.32
2019-05-05T16:58:45.083Z,8.11
2019-05-05T17:02:47.208Z,7.95
2019-05-05T17:06:49.037Z,7.77
2019-05-05T17:10:50.962Z,7.62
2019-05-05T17:15:27.027Z,7.48
2019-05-05T17:19:37.698Z,7.27
2019-05-05T17:23:39.842Z,7.17
2019-05-05T17:27:48.727Z,6.98
2019-05-05T17:31:45.403Z,6.79
2019-05-05T17:35:47.264Z,6.66
2019-05-05T17:40:04.190Z,6.61
2019-05-05T17:44:09.930Z,6.47
2019-05-05T17:48:20.445Z,6.32
2019-05-05T17:52:40.825Z,6.18
2019-05-05T17:56:42.815Z,6.10
2019-05-05T18:00:54.334Z,5.97
2019-05-05T18:04:56.438Z,5.75
2019-05-05T18:09:10.353Z,5.48
2019-05-05T18:13:23.837Z,5.32
2019-05-05T18:17:27.499Z,5.19
2019-05-05T18:21:32.137Z,4.92
2019-05-05T18:25:34.681Z,4.82
2019-05-05T18:29:36.712Z,4.57
2019-05-05T18:33:38.715Z,4.45
2019-05-05T18:37:40.531Z,4.38
2019-05-05T18:41:48.292Z,4.14
2019-05-05T18:46:01.510Z,3.95
2019-05-05T18:50:04.119Z,3.65
2019-05-05T18:54:06.291Z,3.60
2019-05-05T18:58:08.422Z,3.54
2019-05-05T19:02:28.367Z,3.51
2019-05-05T19:06:56.370Z,3.38
2019-05-05T19:10:58.156Z,3.19
2019-05-05T19:15:00.062Z,3.13
2019-05-05T19:19:03.628Z,2.92
2019-05-05T19:23:06.828Z,2.80
2019-05-05T19:27:09.088Z,2.69
2019-05-05T19:31:13.895Z,2.54
2019-05-05T19:35:16.030Z,2.31
2019-05-05T19:39:17.984Z,2.10
2019-05-05T19:43:20.249Z,2.00
2019-05-05T19:47:24.610Z,1.90
2019-05-05T19:51:26.933Z,1.76
2019-05-05T19:55:28.870Z,1.68
2019-05-05T19:59:30.742Z,1.62
2019-05-05T20:03:34.720Z,1.57
2019-05-05T20:07:43.901Z,1.53
2019-05-05T20:11:45.985Z,1.53
2019-05-05T20:16:00.723Z,1.48
2019-05-05T20:20:04.487Z,1.37
2019-05-05T20:24:06.593Z,1.20
2019-05-05T20:28:09.102Z,1.12
2019-05-05T20:32:10.981Z,1.13
2019-05-05T20:36:18.921Z,1.07
2019-05-05T20:40:24.451Z,1.02
2019-05-05T20:44:26.541Z,0.91
2019-05-05T20:48:28.428Z,0.77
2019-05-05T20:52:30.325Z,0.63
2019-05-05T20:56:33.827Z,0.43
2019-05-05T21:00:35.882Z,0.45
2019-05-05T21:04:37.711Z,0.46
2019-05-05T21:08:39.597Z,0.56
2019-05-05T21:12:45.348Z,0.54
2019-05-05T21:16:46.109Z,0.51
2019-05-05T21:20:47.953Z,0.52
2019-05-05T21:24:49.861Z,0.62
2019-05-05T21:28:53.816Z,0.69
2019-05-05T21:32:55.877Z,0.69
2019-05-05T21:36:58.731Z,0.62
2019-05-05T21:41:00.908Z,0.58
2019-05-05T21:45:04.639Z,0.50
2019-05-05T21:49:06.608Z,0.39
2019-05-05T21:53:20.134Z,0.28
2019-05-05T21:57:39.470Z,-0.01
2019-05-05T22:01:48.305Z,-0.12
2019-05-05T22:05:45.295Z,-0.26
2019-05-05T22:09:47.134Z,-0.29
2019-05-05T22:13:48.988Z,-0.35
2019-05-05T22:17:51.001Z,-0.41
2019-05-05T22:21:58.312Z,-0.41
2019-05-05T22:26:00.544Z,-0.48
2019-05-05T22:30:10.104Z,-0.67
2019-05-05T22:34:07.369Z,-0.79
2019-05-05T22:38:09.662Z,-0.95
2019-05-05T22:42:13.723Z,-0.97
2019-05-05T22:46:16.982Z,-1.03
2019-05-05T22:50:19.205Z,-1.03
2019-05-05T22:54:21.596Z,-1.15
2019-05-05T22:58:24.156Z,-1.17
2019-05-05T23:02:31.248Z,-1.23
2019-05-05T23:06:33.498Z,-1.23
2019-05-05T23:10:36.252Z,-1.25
2019-05-05T23:14:38.497Z,-1.26
2019-05-05T23:18:40.831Z,-1.33
2019-05-05T23:22:51.803Z,-1.25
2019-05-05T23:26:54.964Z,-1.02
2019-05-05T23:30:57.418Z,-0.84
2019-05-05T23:34:59.726Z,-0.70
2019-05-05T23:39:03.907Z,-0.56
2019-05-05T23:43:06.218Z,-0.45
2019-05-05T23:47:08.488Z,-0.36
2019-05-05T23:51:10.696Z,-0.15
2019-05-05T23:55:14.293Z,0.07
2019-05-05T23:59:16.684Z,0.23
